Terminal Aerodrome Forecast
Issued by NWS

Home | Current Version | Previous Version | Text Only | Print | Product List | Glossary On
Versions: 1 2 3 4 5 6 7 8 9 10 11 12 13 14 15 16 17 18 19 20 21 22 23 24 25 26 27 28 29 30 31 32 33 34 35 36 37 38 39 40 41 42 43 44
000
FTUS45 KSLC 212346
TAFEVW
TAF
KEVW 212346Z 2200/2224 25017KT 6SM -RA BKN010 OVC015
     FM220400 27015KT 3SM -SN BKN008 OVC015
     FM221000 29014KT P6SM VCSH OVC020
     FM221400 30014KT P6SM VCSH SCT020 BKN030
     FM221900 30014G20KT P6SM SCT030 SCT100=

USA.gov is the U.S. government's official web portal to all federal, state and local government web resources and services.